Time;durP1;ratioP1;P1;durP2;ratioP2;P2;SDS_P1;SDS_P2;PMS_P1;PMS_P2;Temp;Humidity;BMP_temperature;BMP_pressure;BME280_temperature;BME280_humidity;BME280_pressure;Samples;Min_cycle;Max_cycle;Signal;HPM_P1;HPM_P2
2022/03/15 00:00:20;;;;;;;24.50;16.17;;;;;;;;;;4990435;28;20379;-68
2022/03/15 00:02:50;;;;;;;26.10;17.27;;;6.50;99.90;;;;;;4990912;28;20034;-68
2022/03/15 00:05:17;;;;;;;24.00;14.60;;;6.40;99.90;;;;;;4990829;28;20103;-68
2022/03/15 00:07:44;;;;;;;21.43;15.17;;;6.30;99.90;;;;;;4990652;28;20435;-68
2022/03/15 00:10:12;;;;;;;22.57;15.63;;;;;;;;;;4990766;28;20064;-68
2022/03/15 00:12:38;;;;;;;22.53;15.50;;;;;;;;;;4990221;28;20026;-68
2022/03/15 00:15:04;;;;;;;25.47;17.57;;;6.30;99.90;;;;;;4989747;28;20382;-68
2022/03/15 00:17:32;;;;;;;26.63;17.07;;;6.10;99.90;;;;;;4990635;28;20479;-68
2022/03/15 00:19:58;;;;;;;24.93;15.90;;;;;;;;;;4990545;28;20097;-68
2022/03/15 00:22:24;;;;;;;22.37;17.13;;;;;;;;;;4990855;28;20030;-68
2022/03/15 00:24:51;;;;;;;23.70;16.03;;;;;;;;;;4990273;28;20069;-68
2022/03/15 00:27:16;;;;;;;22.67;16.03;;;6.20;99.90;;;;;;4990727;28;20089;-68
2022/03/15 00:29:43;;;;;;;24.30;14.77;;;6.20;99.90;;;;;;4990511;28;20054;-68
2022/03/15 00:32:09;;;;;;;27.23;15.87;;;6.00;99.90;;;;;;4990024;28;20781;-68
2022/03/15 00:34:34;;;;;;;27.33;15.53;;;6.10;99.90;;;;;;4990840;28;20029;-68
2022/03/15 00:37:00;;;;;;;22.40;16.00;;;6.10;99.90;;;;;;4990367;28;20030;-68
2022/03/15 00:39:25;;;;;;;20.60;14.50;;;6.20;99.90;;;;;;4990709;28;20076;-68
2022/03/15 00:41:51;;;;;;;22.60;16.10;;;6.20;99.90;;;;;;4990283;28;20042;-68
2022/03/15 00:44:16;;;;;;;26.43;15.80;;;6.10;99.90;;;;;;4990664;28;20038;-68
2022/03/15 00:46:42;;;;;;;22.33;15.83;;;6.10;99.90;;;;;;4989895;28;20042;-68
2022/03/15 00:49:07;;;;;;;23.30;15.87;;;6.10;99.90;;;;;;4990413;28;20390;-68
2022/03/15 00:51:34;;;;;;;27.43;16.53;;;;;;;;;;4990327;28;20030;-69
2022/03/15 00:54:00;;;;;;;25.73;17.37;;;6.10;99.90;;;;;;4989884;28;20105;-69
2022/03/15 00:56:26;;;;;;;21.43;14.10;;;6.20;99.90;;;;;;4990493;28;20031;-69
2022/03/15 00:58:51;;;;;;;25.60;16.10;;;5.70;99.90;;;;;;4989653;28;20035;-67
2022/03/15 01:01:17;;;;;;;23.07;15.77;;;6.10;99.90;;;;;;4989738;28;20396;-68
2022/03/15 01:03:42;;;;;;;22.40;14.93;;;6.10;99.90;;;;;;4990638;28;20432;-68
2022/03/15 01:06:09;;;;;;;24.63;16.47;;;;;;;;;;4990098;28;20514;-68
2022/03/15 01:08:35;;;;;;;26.60;17.13;;;;;;;;;;4990289;28;20065;-69
2022/03/15 01:11:02;;;;;;;27.10;17.10;;;6.10;99.90;;;;;;5005178;28;20495;-69
2022/03/15 01:13:28;;;;;;;29.87;19.00;;;;;;;;;;4992558;28;20030;-68
2022/03/15 01:15:53;;;;;;;29.70;18.27;;;6.30;99.90;;;;;;4993147;28;20141;-68
2022/03/15 01:18:20;;;;;;;31.03;17.67;;;;;;;;;;4994307;28;20027;-68
2022/03/15 01:20:46;;;;;;;29.43;17.90;;;6.40;99.90;;;;;;4993995;28;20065;-68
2022/03/15 01:23:12;;;;;;;32.20;19.13;;;6.40;99.90;;;;;;4993614;28;20109;-68
2022/03/15 01:25:38;;;;;;;27.70;17.67;;;6.30;99.90;;;;;;4993879;28;20039;-69
2022/03/15 01:28:05;;;;;;;28.63;18.53;;;6.40;99.90;;;;;;4993834;28;20053;-69
2022/03/15 01:30:31;;;;;;;26.40;17.57;;;;;;;;;;4993048;28;20506;-69
2022/03/15 01:32:57;;;;;;;28.53;18.03;;;6.30;99.90;;;;;;4993551;28;20018;-69
2022/03/15 01:35:23;;;;;;;25.47;17.93;;;6.20;99.90;;;;;;4994095;28;20034;-68
2022/03/15 01:37:49;;;;;;;24.83;17.67;;;;;;;;;;4993282;28;20025;-69
2022/03/15 01:40:14;;;;;;;25.17;16.97;;;6.20;99.90;;;;;;4993292;28;20392;-69
2022/03/15 01:42:41;;;;;;;26.70;17.20;;;6.20;99.90;;;;;;4993815;28;20033;-68
2022/03/15 01:45:08;;;;;;;28.13;19.07;;;6.20;99.90;;;;;;4992643;28;20037;-68
2022/03/15 01:47:33;;;;;;;24.30;16.70;;;6.30;99.90;;;;;;4993261;28;20030;-69
2022/03/15 01:49:59;;;;;;;26.63;18.20;;;6.30;99.90;;;;;;4993199;28;20514;-69
2022/03/15 01:52:25;;;;;;;28.80;18.37;;;;;;;;;;4992964;28;20460;-69
2022/03/15 01:54:51;;;;;;;27.90;17.77;;;6.20;99.90;;;;;;4992624;28;20050;-68
2022/03/15 01:57:17;;;;;;;26.07;18.37;;;;;;;;;;5008222;28;20549;-69
2022/03/15 01:59:42;;;;;;;29.93;19.17;;;6.20;99.90;;;;;;4992353;28;20391;-68
2022/03/15 02:02:09;;;;;;;34.13;17.97;;;6.30;99.90;;;;;;4992773;28;20030;-68
2022/03/15 02:04:36;;;;;;;28.13;17.60;;;6.40;99.90;;;;;;4992844;28;20077;-69
2022/03/15 02:07:15;;;;;;;35.43;19.93;;;6.80;99.90;;;;;;4992761;28;20025;-69
2022/03/15 02:09:41;;;;;;;28.53;18.90;;;6.50;99.90;;;;;;4992973;28;20080;-69
2022/03/15 02:12:07;;;;;;;29.63;18.07;;;6.40;99.90;;;;;;4992463;28;20380;-68
2022/03/15 02:14:34;;;;;;;36.83;20.87;;;6.30;99.90;;;;;;4992778;28;20057;-68
2022/03/15 02:17:00;;;;;;;34.50;21.70;;;6.40;99.90;;;;;;4992719;28;20022;-69
2022/03/15 02:19:27;;;;;;;32.67;21.60;;;6.50;99.90;;;;;;4993287;28;20026;-68
2022/03/15 02:21:53;;;;;;;35.57;21.87;;;6.50;99.90;;;;;;4991803;28;20066;-68
2022/03/15 02:24:19;;;;;;;32.37;19.67;;;6.50;99.90;;;;;;4992649;28;20062;-69
2022/03/15 02:26:45;;;;;;;29.97;20.07;;;6.50;99.90;;;;;;4992576;28;20057;-69
2022/03/15 02:29:10;;;;;;;28.33;19.97;;;6.20;99.90;;;;;;4992096;28;20435;-68
2022/03/15 02:31:36;;;;;;;28.50;20.17;;;6.40;99.90;;;;;;4991701;28;20049;-68
2022/03/15 02:34:02;;;;;;;30.13;19.37;;;;;;;;;;4992327;28;20056;-69
2022/03/15 02:36:27;;;;;;;33.00;19.40;;;6.40;99.90;;;;;;4992230;28;20033;-69
2022/03/15 02:38:53;;;;;;;28.87;18.70;;;;;;;;;;4991964;28;20038;-69
2022/03/15 02:41:19;;;;;;;27.13;18.80;;;6.50;99.90;;;;;;4992286;28;20018;-68
2022/03/15 02:43:45;;;;;;;37.10;19.90;;;6.50;99.90;;;;;;4990413;28;20042;-69
2022/03/15 02:46:11;;;;;;;40.50;21.67;;;6.50;99.90;;;;;;4990980;28;20384;-69
2022/03/15 02:48:37;;;;;;;29.50;21.17;;;;;;;;;;4992537;28;20095;-70
2022/03/15 02:51:10;;;;;;;30.60;21.47;;;6.30;99.90;;;;;;4991313;28;20128;-68
2022/03/15 02:53:39;;;;;;;34.17;20.45;;;6.70;99.90;;;;;;4991683;28;20043;-69
2022/03/15 02:56:10;;;;;;;33.70;20.73;;;6.70;99.90;;;;;;4991637;28;20022;-69
2022/03/15 02:58:37;;;;;;;35.30;22.53;;;;;;;;;;4991525;28;20026;-68
2022/03/15 03:01:03;;;;;;;35.27;20.70;;;;;;;;;;4991119;28;20038;-68
2022/03/15 03:03:28;;;;;;;33.03;21.37;;;6.70;99.90;;;;;;4991447;28;20124;-69
2022/03/15 03:05:54;;;;;;;28.43;19.47;;;6.80;99.90;;;;;;4991771;28;20188;-69
2022/03/15 03:08:25;;;;;;;24.90;16.87;;;;;;;;;;4991907;28;20368;-69
2022/03/15 03:10:52;;;;;;;32.80;19.90;;;6.20;99.90;;;;;;4991345;28;20061;-69
2022/03/15 03:13:18;;;;;;;30.30;21.97;;;6.70;99.90;;;;;;4991662;28;20037;-68
2022/03/15 03:15:44;;;;;;;29.37;19.60;;;;;;;;;;4991653;28;20112;-68
2022/03/15 03:18:10;;;;;;;31.97;20.60;;;6.60;99.90;;;;;;4991440;28;20061;-69
2022/03/15 03:20:35;;;;;;;31.43;22.47;;;6.50;99.90;;;;;;4991845;28;20041;-69
2022/03/15 03:23:01;;;;;;;31.53;22.13;;;6.60;99.90;;;;;;4991265;28;20430;-68
2022/03/15 03:25:28;;;;;;;27.47;19.93;;;6.70;99.90;;;;;;4991559;28;20032;-69
2022/03/15 03:27:53;;;;;;;40.13;23.30;;;6.20;99.90;;;;;;4990940;28;20034;-69
2022/03/15 03:30:19;;;;;;;33.20;20.90;;;;;;;;;;4991023;28;20101;-69
2022/03/15 03:32:45;;;;;;;29.10;20.13;;;6.70;99.90;;;;;;4991491;28;20033;-68
2022/03/15 03:35:11;;;;;;;24.33;17.97;;;;;;;;;;4990802;28;20034;-68
2022/03/15 03:37:37;;;;;;;32.40;23.10;;;6.60;99.90;;;;;;4991162;28;20445;-69
2022/03/15 03:40:07;;;;;;;33.47;21.60;;;6.50;99.90;;;;;;4991116;28;20038;-69
2022/03/15 03:42:33;;;;;;;32.30;21.13;;;;;;;;;;4989657;28;20088;-69
2022/03/15 03:44:58;;;;;;;35.23;20.07;;;6.70;99.90;;;;;;4990293;28;20039;-68
2022/03/15 03:47:24;;;;;;;27.13;18.83;;;6.70;99.90;;;;;;4991650;28;20408;-68
2022/03/15 03:49:50;;;;;;;32.53;22.07;;;;;;;;;;4990502;28;20050;-68
2022/03/15 03:52:15;;;;;;;38.73;22.03;;;6.30;99.90;;;;;;4990872;28;20023;-68
2022/03/15 03:54:41;;;;;;;33.70;20.53;;;;;;;;;;4989874;28;20077;-69
2022/03/15 03:57:07;;;;;;;30.93;20.93;;;6.70;99.90;;;;;;4989537;28;20499;-69
2022/03/15 03:59:32;;;;;;;34.80;21.30;;;6.60;99.90;;;;;;4989878;28;20033;-68
2022/03/15 04:01:58;;;;;;;28.70;21.23;;;;;;;;;;4989698;28;20037;-68
2022/03/15 04:04:28;;;;;;;34.00;20.67;;;;;;;;;;4990305;28;20041;-69
2022/03/15 04:06:55;;;;;;;33.87;22.17;;;6.70;99.90;;;;;;4989656;28;20026;-69
2022/03/15 04:09:22;;;;;;;32.97;20.77;;;6.60;99.90;;;;;;4990436;28;20097;-69
2022/03/15 04:11:49;;;;;;;23.27;16.93;;;;;;;;;;4989053;28;20046;-69
2022/03/15 04:14:15;;;;;;;34.60;22.63;;;;;;;;;;4990367;28;20034;-69
2022/03/15 04:16:41;;;;;;;37.07;23.63;;;6.70;99.90;;;;;;4990101;28;20030;-69
2022/03/15 04:19:07;;;;;;;27.93;21.10;;;7.00;99.90;;;;;;4989851;28;20034;-69
2022/03/15 04:21:33;;;;;;;33.63;20.67;;;6.40;99.90;;;;;;4990097;28;20030;-69
2022/03/15 04:23:58;;;;;;;31.00;22.00;;;6.60;99.90;;;;;;4989034;28;20109;-68
2022/03/15 04:26:25;;;;;;;35.40;21.90;;;6.60;99.90;;;;;;4990081;28;20026;-69
2022/03/15 04:28:54;;;;;;;31.23;22.07;;;6.80;99.90;;;;;;4989614;28;20038;-69
2022/03/15 04:31:21;;;;;;;32.07;22.00;;;;;;;;;;4989578;28;20503;-69
2022/03/15 04:33:47;;;;;;;31.17;20.57;;;6.50;99.90;;;;;;4990106;28;20125;-69
2022/03/15 04:36:12;;;;;;;35.80;21.90;;;6.70;99.90;;;;;;4989481;28;20519;-69
2022/03/15 04:38:38;;;;;;;30.80;20.87;;;6.70;99.90;;;;;;4989063;28;20049;-68
2022/03/15 04:41:07;;;;;;;28.27;20.97;;;6.60;99.90;;;;;;4989128;28;20084;-68
2022/03/15 04:43:33;;;;;;;35.63;20.60;;;;;;;;;;4989964;28;20027;-68
2022/03/15 04:45:59;;;;;;;31.17;21.30;;;6.90;99.90;;;;;;4989406;28;20101;-68
2022/03/15 04:48:25;;;;;;;31.03;20.50;;;6.60;99.90;;;;;;4991809;28;20038;-68
2022/03/15 04:50:51;;;;;;;31.40;21.67;;;6.70;99.90;;;;;;4992819;28;20042;-69
2022/03/15 04:53:18;;;;;;;27.97;20.87;;;;;;;;;;4958027;28;1009478;-68
2022/03/15 04:55:43;;;;;;;29.00;20.43;;;6.50;99.90;;;;;;4994274;28;20510;-68
2022/03/15 04:58:09;;;;;;;34.20;21.97;;;;;;;;;;4994276;28;20040;-68
2022/03/15 05:00:35;;;;;;;28.07;18.20;;;6.60;99.90;;;;;;4993965;28;20030;-68
2022/03/15 05:03:00;;;;;;;31.27;20.53;;;6.60;99.90;;;;;;4993662;28;20491;-69
2022/03/15 05:05:26;;;;;;;30.37;19.57;;;6.50;99.90;;;;;;4994365;28;20379;-69
2022/03/15 05:07:52;;;;;;;33.53;20.97;;;6.60;99.90;;;;;;4993239;28;20054;-69
2022/03/15 05:13:01;;;;;;;30.33;19.77;;;6.60;99.90;;;;;;4994186;28;20517;-68
2022/03/15 05:15:27;;;;;;;25.10;18.60;;;6.60;99.90;;;;;;4993995;28;20038;-68
2022/03/15 05:17:53;;;;;;;26.40;18.10;;;6.60;99.90;;;;;;4993835;28;20029;-69
2022/03/15 05:20:19;;;;;;;23.73;18.07;;;;;;;;;;4994052;28;20034;-69
2022/03/15 05:22:46;;;;;;;27.60;19.17;;;6.50;99.90;;;;;;4993235;28;20054;-68
2022/03/15 05:25:13;;;;;;;25.20;17.87;;;6.60;99.90;;;;;;4993506;28;20035;-69
2022/03/15 05:27:40;;;;;;;29.13;18.60;;;6.50;99.90;;;;;;4993565;28;20117;-69
2022/03/15 05:30:06;;;;;;;27.90;19.00;;;;;;;;;;4993454;28;20046;-69
2022/03/15 05:32:31;;;;;;;27.43;18.70;;;6.50;99.90;;;;;;4993660;28;20030;-69
2022/03/15 05:34:57;;;;;;;24.37;18.40;;;;;;;;;;4992854;28;20053;-69
2022/03/15 05:37:23;;;;;;;27.77;20.07;;;6.60;99.90;;;;;;4993361;28;20053;-69
2022/03/15 05:39:49;;;;;;;26.47;18.73;;;;;;;;;;4992916;28;20058;-69
2022/03/15 05:42:18;;;;;;;27.03;18.77;;;;;;;;;;4993534;28;20026;-68
2022/03/15 05:44:43;;;;;;;24.53;18.20;;;6.10;99.90;;;;;;4993657;28;20038;-69
2022/03/15 05:47:09;;;;;;;25.80;18.27;;;6.30;99.90;;;;;;4993304;28;20483;-69
2022/03/15 05:49:34;;;;;;;24.83;17.03;;;6.60;99.90;;;;;;4993517;28;20042;-70
2022/03/15 05:52:00;;;;;;;29.30;18.87;;;6.70;99.90;;;;;;4992439;28;20030;-69
2022/03/15 05:54:26;;;;;;;27.67;17.97;;;6.50;99.90;;;;;;4992197;28;20124;-68
2022/03/15 05:56:52;;;;;;;26.33;18.30;;;;;;;;;;4992801;28;20033;-68
2022/03/15 05:59:17;;;;;;;23.97;17.60;;;6.50;99.90;;;;;;4992927;28;20380;-68
2022/03/15 06:01:43;;;;;;;23.83;17.93;;;6.50;99.90;;;;;;4993259;28;20487;-69
2022/03/15 06:04:10;;;;;;;23.50;17.27;;;6.50;99.90;;;;;;4992633;28;20042;-68
2022/03/15 06:06:36;;;;;;;24.53;16.23;;;6.50;99.90;;;;;;4992251;28;20030;-68
2022/03/15 06:09:02;;;;;;;26.67;18.50;;;;;;;;;;4992944;28;20030;-68
2022/03/15 06:11:29;;;;;;;20.03;16.73;;;;;;;;;;4993097;28;20130;-68
2022/03/15 06:13:55;;;;;;;23.83;16.80;;;;;;;;;;4992848;28;20029;-68
2022/03/15 06:16:20;;;;;;;21.70;17.30;;;6.70;99.90;;;;;;4992153;28;20073;-69
2022/03/15 06:18:46;;;;;;;28.50;18.97;;;;;;;;;;4991721;28;20038;-68
2022/03/15 06:21:12;;;;;;;22.40;17.03;;;6.50;99.90;;;;;;4990834;28;20436;-69
2022/03/15 06:23:37;;;;;;;27.83;18.00;;;6.70;99.90;;;;;;4992143;28;20117;-68
2022/03/15 06:26:03;;;;;;;18.37;15.63;;;;;;;;;;4991825;28;20049;-68
2022/03/15 06:28:29;;;;;;;24.73;17.23;;;6.60;99.90;;;;;;4992615;28;20121;-68
2022/03/15 06:30:57;;;;;;;29.03;19.03;;;6.70;99.90;;;;;;4991936;28;20137;-68
2022/03/15 06:33:23;;;;;;;23.73;17.90;;;;;;;;;;4992192;28;20037;-68
2022/03/15 06:35:49;;;;;;;29.53;18.80;;;;;;;;;;4991539;28;20034;-68
2022/03/15 06:38:14;;;;;;;27.53;19.50;;;6.70;99.90;;;;;;4992460;28;20031;-68
2022/03/15 06:40:41;;;;;;;27.00;18.00;;;6.80;99.90;;;;;;4991976;28;20034;-68
2022/03/15 06:43:06;;;;;;;24.50;18.40;;;6.80;99.90;;;;;;4991992;28;20040;-68
2022/03/15 06:45:32;;;;;;;29.90;18.47;;;6.80;99.90;;;;;;4992305;28;20108;-68
2022/03/15 06:47:58;;;;;;;28.30;19.97;;;6.60;99.90;;;;;;4992043;28;20037;-68
2022/03/15 06:50:24;;;;;;;24.20;17.83;;;7.00;99.90;;;;;;4991809;28;20039;-68
2022/03/15 06:52:49;;;;;;;27.03;19.67;;;;;;;;;;4991499;28;20054;-68
2022/03/15 06:55:16;;;;;;;30.90;18.37;;;6.90;99.90;;;;;;4991875;28;20035;-68
2022/03/15 06:57:42;;;;;;;24.60;19.53;;;6.90;99.90;;;;;;4992436;28;20100;-68
2022/03/15 07:00:10;;;;;;;25.87;20.17;;;7.00;99.90;;;;;;4991846;28;20710;-68
2022/03/15 07:02:35;;;;;;;23.30;18.43;;;7.00;99.90;;;;;;4989583;28;20076;-68
2022/03/15 07:05:01;;;;;;;33.67;19.73;;;;;;;;;;4991064;28;20113;-68
2022/03/15 07:07:27;;;;;;;25.87;19.60;;;;;;;;;;4992018;28;20026;-68
2022/03/15 07:09:54;;;;;;;27.53;18.40;;;7.30;99.90;;;;;;4990640;28;20089;-68
2022/03/15 07:12:20;;;;;;;28.50;19.80;;;7.20;99.90;;;;;;4992092;28;20026;-68
2022/03/15 07:14:47;;;;;;;28.77;19.67;;;7.20;99.90;;;;;;4991645;28;20031;-68
2022/03/15 07:17:13;;;;;;;26.43;18.27;;;7.20;99.90;;;;;;4991672;28;20104;-68
2022/03/15 07:19:38;;;;;;;28.90;18.80;;;7.30;99.90;;;;;;4990911;28;20069;-68
2022/03/15 07:22:06;;;;;;;24.23;19.10;;;7.20;99.90;;;;;;4991580;28;20471;-68
2022/03/15 07:24:32;;;;;;;29.10;20.13;;;7.30;99.90;;;;;;4991862;28;20022;-68
2022/03/15 07:26:58;;;;;;;25.47;19.53;;;7.40;99.90;;;;;;4991243;28;20026;-68
2022/03/15 07:29:24;;;;;;;27.73;20.03;;;;;;;;;;4991668;28;20105;-68
2022/03/15 07:31:50;;;;;;;25.07;20.50;;;7.40;99.90;;;;;;4990952;28;20096;-68
2022/03/15 07:34:15;;;;;;;25.40;19.60;;;7.40;99.90;;;;;;4990707;28;20479;-69
2022/03/15 07:36:41;;;;;;;23.13;18.63;;;7.40;99.90;;;;;;4991417;28;20034;-68
2022/03/15 07:39:06;;;;;;;24.93;19.23;;;7.30;99.90;;;;;;4990842;28;20521;-68
2022/03/15 07:41:37;;;;;;;28.27;21.63;;;;;;;;;;4990792;28;20427;-68
2022/03/15 07:44:03;;;;;;;28.80;20.67;;;7.60;99.90;;;;;;4990503;28;20030;-69
2022/03/15 07:46:29;;;;;;;24.63;19.10;;;7.40;99.90;;;;;;4990734;28;20507;-69
2022/03/15 07:48:54;;;;;;;25.90;18.80;;;;;;;;;;4990191;28;20436;-68
2022/03/15 07:51:20;;;;;;;21.90;19.17;;;;;;;;;;4990921;28;20038;-68
2022/03/15 07:53:46;;;;;;;23.47;18.77;;;;;;;;;;4990964;28;20046;-68
2022/03/15 07:56:12;;;;;;;22.03;18.70;;;7.60;99.90;;;;;;4990715;28;20037;-68
2022/03/15 07:58:37;;;;;;;22.57;18.73;;;7.70;99.90;;;;;;4990708;28;20030;-68
2022/03/15 08:01:04;;;;;;;28.27;19.60;;;8.10;99.90;;;;;;4988549;28;20030;-68
2022/03/15 08:03:29;;;;;;;24.00;17.87;;;7.60;99.90;;;;;;4984584;28;20408;-68
2022/03/15 08:05:55;;;;;;;26.23;18.43;;;7.70;99.90;;;;;;4989488;28;20045;-69
2022/03/15 08:08:21;;;;;;;23.30;16.87;;;;;;;;;;4989773;28;20030;-68
2022/03/15 08:10:47;;;;;;;25.20;16.17;;;7.90;99.90;;;;;;4989910;28;20034;-69
2022/03/15 08:13:13;;;;;;;22.03;17.70;;;;;;;;;;4990003;28;20025;-68
2022/03/15 08:15:38;;;;;;;20.83;17.27;;;7.90;99.90;;;;;;4990359;28;20073;-68
2022/03/15 08:18:06;;;;;;;19.33;15.53;;;7.90;99.90;;;;;;4989200;28;20034;-68
2022/03/15 08:20:32;;;;;;;23.33;16.30;;;7.90;99.90;;;;;;4990418;28;20182;-68
2022/03/15 08:22:59;;;;;;;20.83;16.57;;;8.10;99.90;;;;;;4989694;28;20078;-68
2022/03/15 08:25:25;;;;;;;21.83;14.33;;;8.10;99.90;;;;;;4990226;28;20467;-69
2022/03/15 08:27:51;;;;;;;18.37;15.73;;;8.30;99.90;;;;;;4990014;28;20065;-68
2022/03/15 08:30:16;;;;;;;20.17;14.87;;;8.30;99.90;;;;;;4990587;28;20039;-68
2022/03/15 08:32:42;;;;;;;24.17;16.80;;;8.40;99.90;;;;;;4989702;28;20472;-69
2022/03/15 08:35:08;;;;;;;22.90;15.47;;;;;;;;;;4989505;28;20054;-69
2022/03/15 08:37:35;;;;;;;18.83;15.00;;;8.50;99.90;;;;;;4989804;28;20080;-68
2022/03/15 08:40:01;;;;;;;18.97;14.63;;;8.40;99.90;;;;;;4990056;28;20038;-68
2022/03/15 08:42:27;;;;;;;21.83;14.73;;;;;;;;;;4990485;28;20041;-69
2022/03/15 08:44:56;;;;;;;18.07;13.97;;;8.30;99.90;;;;;;4989700;28;20392;-69
2022/03/15 08:47:21;;;;;;;23.10;14.70;;;8.50;99.90;;;;;;5005395;28;20157;-69
2022/03/15 08:49:47;;;;;;;17.00;14.10;;;8.60;99.90;;;;;;4990307;28;20121;-69
2022/03/15 08:52:13;;;;;;;19.10;13.30;;;8.60;99.90;;;;;;4989979;28;20105;-69
2022/03/15 08:54:39;;;;;;;18.93;13.70;;;8.80;99.90;;;;;;4990073;28;20058;-69
2022/03/15 08:57:04;;;;;;;22.70;13.50;;;8.60;99.90;;;;;;4989840;28;20022;-69
2022/03/15 08:59:30;;;;;;;19.90;13.37;;;8.80;99.90;;;;;;4989775;28;20041;-69
2022/03/15 09:01:56;;;;;;;19.30;13.53;;;;;;;;;;4989614;28;20423;-67
2022/03/15 09:04:23;;;;;;;18.27;13.60;;;8.70;99.90;;;;;;4987040;28;20483;-67
2022/03/15 09:06:49;;;;;;;19.20;13.60;;;;;;;;;;4989365;28;20034;-67
2022/03/15 09:09:20;;;;;;;15.90;12.53;;;9.00;99.90;;;;;;4988387;28;20427;-67
2022/03/15 09:11:46;;;;;;;15.63;12.60;;;9.00;99.90;;;;;;4988554;28;20038;-67
2022/03/15 09:14:12;;;;;;;18.93;11.23;;;9.00;99.90;;;;;;4988771;28;20032;-67
2022/03/15 09:16:39;;;;;;;16.83;12.87;;;9.10;99.90;;;;;;4989690;28;20027;-67
2022/03/15 09:19:05;;;;;;;14.93;12.43;;;9.40;99.90;;;;;;4989985;28;20026;-68
2022/03/15 09:21:31;;;;;;;15.17;12.20;;;;;;;;;;4989228;28;20109;-68
2022/03/15 09:23:57;;;;;;;14.43;12.23;;;9.60;99.90;;;;;;4988027;28;20031;-68
2022/03/15 09:26:24;;;;;;;14.63;11.53;;;9.40;99.90;;;;;;4989233;28;20030;-68
2022/03/15 09:28:50;;;;;;;16.67;12.43;;;9.60;99.90;;;;;;4988385;28;20023;-68
2022/03/15 09:31:16;;;;;;;15.37;12.07;;;;;;;;;;4990060;28;20042;-68
2022/03/15 09:33:43;;;;;;;15.03;11.07;;;;;;;;;;4991065;28;20026;-67
2022/03/15 09:36:09;;;;;;;17.97;11.80;;;;;;;;;;4992894;28;20030;-68
2022/03/15 09:38:35;;;;;;;13.00;10.57;;;;;;;;;;4992914;28;20030;-68
2022/03/15 09:41:03;;;;;;;17.23;10.93;;;9.70;99.90;;;;;;4993421;28;20092;-67
2022/03/15 09:43:38;;;;;;;16.70;12.30;;;9.70;99.90;;;;;;4992902;28;20030;-68
2022/03/15 09:46:05;;;;;;;18.70;11.50;;;9.90;99.90;;;;;;4993169;28;20499;-67
2022/03/15 09:48:32;;;;;;;21.80;13.30;;;9.80;99.90;;;;;;4995219;28;20164;-68
2022/03/15 09:50:57;;;;;;;17.57;10.87;;;10.00;99.90;;;;;;5012658;28;20499;-67
2022/03/15 09:53:23;;;;;;;14.80;12.10;;;;;;;;;;5012289;28;20052;-67
2022/03/15 09:55:49;;;;;;;18.90;11.13;;;9.80;99.90;;;;;;5012299;28;20394;-67
2022/03/15 09:58:20;;;;;;;16.47;11.77;;;10.10;99.90;;;;;;5012562;28;20084;-67
2022/03/15 10:00:55;;;;;;;12.83;11.07;;;10.00;99.90;;;;;;5005082;28;20037;-68
2022/03/15 10:03:21;;;;;;;19.30;12.77;;;10.00;99.90;;;;;;4992512;28;20031;-68
2022/03/15 10:05:49;;;;;;;16.50;12.03;;;10.50;99.90;;;;;;4985005;28;20125;-68
2022/03/15 10:08:16;;;;;;;19.70;12.43;;;10.20;99.90;;;;;;4992776;28;20104;-68
2022/03/15 10:10:42;;;;;;;15.40;10.93;;;10.40;99.90;;;;;;4992356;28;20038;-68
2022/03/15 10:13:09;;;;;;;13.50;11.30;;;10.20;99.90;;;;;;4985199;28;20030;-68
2022/03/15 10:15:35;;;;;;;15.67;11.33;;;10.30;99.90;;;;;;4992663;28;20030;-67
2022/03/15 10:18:04;;;;;;;17.73;11.30;;;10.40;99.90;;;;;;4991710;28;20052;-68
2022/03/15 10:20:41;;;;;;;15.87;10.90;;;10.50;99.90;;;;;;4990285;28;20057;-67
2022/03/15 10:23:09;;;;;;;16.13;10.17;;;10.40;99.90;;;;;;4989448;28;20027;-67
2022/03/15 10:25:35;;;;;;;13.50;9.23;;;10.50;99.90;;;;;;4991808;28;20073;-67
2022/03/15 10:28:06;;;;;;;16.47;10.00;;;10.50;99.90;;;;;;4991059;28;20054;-67
2022/03/15 10:30:34;;;;;;;17.80;10.93;;;10.60;99.90;;;;;;4992014;28;20458;-68
2022/03/15 10:32:59;;;;;;;13.50;8.50;;;10.60;99.90;;;;;;4990791;28;20113;-67
2022/03/15 10:35:31;;;;;;;13.97;9.23;;;10.80;99.90;;;;;;4991961;28;20105;-68
2022/03/15 10:37:57;;;;;;;16.57;9.90;;;10.80;99.90;;;;;;4991967;28;20018;-67
2022/03/15 10:40:37;;;;;;;13.27;9.60;;;10.90;99.90;;;;;;4992158;28;20084;-67
2022/03/15 10:43:18;;;;;;;13.47;9.50;;;10.80;99.90;;;;;;4990952;28;20031;-67
2022/03/15 10:45:47;;;;;;;12.02;7.85;;;10.90;99.90;;;;;;4990999;28;20026;-67
2022/03/15 10:48:17;;;;;;;13.50;8.38;;;11.00;99.90;;;;;;4991158;28;20096;-67
2022/03/15 10:50:56;;;;;;;17.20;8.50;;;11.00;99.90;;;;;;4991528;28;20117;-67
2022/03/15 10:53:25;;;;;;;10.57;8.17;;;11.20;99.90;;;;;;4991713;28;20046;-67
2022/03/15 10:56:07;;;;;;;12.07;7.95;;;11.30;99.90;;;;;;4989819;28;20030;-67
2022/03/15 10:58:34;;;;;;;12.10;8.15;;;11.30;99.90;;;;;;4991429;28;20446;-67
2022/03/15 11:01:00;;;;;;;12.93;7.60;;;11.50;99.90;;;;;;4990186;28;20113;-68
2022/03/15 11:03:29;;;;;;;12.25;9.23;;;;;;;;;;4991899;28;20126;-68
2022/03/15 11:05:57;;;;;;;10.37;7.97;;;11.40;99.90;;;;;;4987538;28;20034;-67
2022/03/15 11:08:24;;;;;;;12.02;7.05;;;;;;;;;;4989900;28;20026;-68
2022/03/15 11:10:51;;;;;;;9.07;8.17;;;11.50;99.90;;;;;;4986476;28;20042;-68
2022/03/15 11:13:17;;;;;;;9.13;7.60;;;11.50;99.90;;;;;;5008232;28;20033;-68
2022/03/15 11:15:48;;;;;;;11.82;8.45;;;11.40;99.90;;;;;;5007425;28;20068;-68
2022/03/15 11:18:16;;;;;;;12.30;8.05;;;11.40;99.90;;;;;;5011406;28;20475;-67
2022/03/15 11:20:45;;;;;;;16.88;9.35;;;11.50;99.90;;;;;;4993185;28;20108;-67
2022/03/15 11:23:16;;;;;;;13.18;9.45;;;11.50;99.90;;;;;;4991439;28;20033;-67
2022/03/15 11:25:48;;;;;;;11.38;9.10;;;11.80;99.90;;;;;;4990921;28;20622;-67
2022/03/15 11:28:19;;;;;;;10.10;7.93;;;10.00;99.30;;;;;;4991464;28;20014;-67
2022/03/15 11:30:45;;;;;;;13.00;9.10;;;;;;;;;;4975250;28;20732;-67
2022/03/15 11:33:11;;;;;;;15.43;9.82;;;11.70;99.90;;;;;;4982041;28;20071;-68
2022/03/15 11:35:39;;;;;;;12.55;8.57;;;11.50;99.90;;;;;;4991321;28;20030;-67
2022/03/15 11:38:09;;;;;;;12.13;9.15;;;11.60;99.90;;;;;;4991315;28;20542;-67
2022/03/15 11:40:35;;;;;;;10.48;7.82;;;;;;;;;;4991142;28;20022;-68
2022/03/15 11:43:23;;;;;;;11.45;8.45;;;11.70;99.90;;;;;;4991335;28;20084;-69
2022/03/15 11:46:29;;;;;;;14.95;7.78;;;11.70;99.90;;;;;;4987927;28;20089;-68
2022/03/15 11:49:15;;;;;;;12.32;8.55;;;11.60;99.90;;;;;;4974047;28;20436;-67
2022/03/15 11:52:03;;;;;;;13.32;8.82;;;11.80;99.90;;;;;;4986603;28;20042;-67
2022/03/15 11:54:43;;;;;;;12.52;8.80;;;11.80;99.90;;;;;;4990230;28;20113;-67
2022/03/15 11:57:30;;;;;;;13.40;8.80;;;11.80;99.90;;;;;;4988529;28;20375;-67
2022/03/15 11:59:56;;;;;;;12.90;8.07;;;11.90;97.90;;;;;;4986118;28;20029;-67
2022/03/15 12:02:32;;;;;;;15.38;9.15;;;12.00;99.90;;;;;;4987198;28;20085;-67
2022/03/15 12:04:58;;;;;;;14.10;7.47;;;11.90;99.90;;;;;;5001241;28;20037;-67
2022/03/15 12:07:45;;;;;;;11.07;7.78;;;12.10;99.90;;;;;;4990524;28;20034;-68
2022/03/15 12:10:11;;;;;;;10.82;7.88;;;;;;;;;;4982134;28;20554;-67
2022/03/15 12:12:40;;;;;;;11.82;7.82;;;12.10;97.80;;;;;;4989766;28;20392;-68
2022/03/15 12:15:15;;;;;;;11.13;8.10;;;12.10;99.90;;;;;;4990152;28;20045;-67
2022/03/15 12:17:42;;;;;;;12.15;7.60;;;12.10;99.90;;;;;;4990156;28;20109;-67
2022/03/15 12:20:14;;;;;;;14.00;8.55;;;12.10;99.90;;;;;;4989027;28;20034;-68
2022/03/15 12:22:42;;;;;;;12.05;7.93;;;12.00;99.90;;;;;;4987600;28;20375;-68
2022/03/15 12:25:11;;;;;;;14.80;8.02;;;11.90;99.00;;;;;;4989663;28;20034;-67
2022/03/15 12:27:49;;;;;;;12.07;8.13;;;12.10;99.90;;;;;;4989230;28;20093;-67
2022/03/15 12:30:29;;;;;;;13.60;9.20;;;11.90;96.40;;;;;;4986771;28;20438;-68
2022/03/15 12:32:57;;;;;;;11.77;8.80;;;12.00;99.90;;;;;;4989657;28;20029;-67
2022/03/15 12:35:29;;;;;;;13.75;7.32;;;11.80;97.50;;;;;;4990662;28;20033;-68
2022/03/15 12:38:10;;;;;;;10.30;7.18;;;11.90;99.90;;;;;;4978806;28;20107;-67
2022/03/15 12:40:45;;;;;;;11.45;7.63;;;11.80;99.90;;;;;;4981947;28;20069;-68
2022/03/15 12:43:23;;;;;;;11.60;6.93;;;11.90;99.90;;;;;;4990183;28;20089;-68
2022/03/15 12:45:50;;;;;;;14.65;8.23;;;12.30;99.90;;;;;;4981956;28;20038;-67
2022/03/15 12:48:18;;;;;;;10.10;7.82;;;12.10;99.90;;;;;;4971068;28;20031;-67
2022/03/15 12:50:43;;;;;;;13.95;7.97;;;12.20;99.90;;;;;;4973543;28;20034;-67
2022/03/15 12:53:14;;;;;;;19.75;10.15;;;12.00;99.90;;;;;;4989036;28;20050;-68
2022/03/15 12:55:42;;;;;;;15.43;9.00;;;12.20;99.90;;;;;;4990400;28;20034;-67
2022/03/15 12:58:12;;;;;;;15.27;9.23;;;12.00;99.90;;;;;;4977869;28;20089;-67
2022/03/15 13:00:40;;;;;;;15.65;8.73;;;12.10;99.90;;;;;;4969468;28;20035;-68